Time;durP1;ratioP1;P1;durP2;ratioP2;P2;SDS_P1;SDS_P2;PMS_P1;PMS_P2;Temp;Humidity;BMP_temperature;BMP_pressure;BME280_temperature;BME280_humidity;BME280_pressure;Samples;Min_cycle;Max_cycle;Signal;HPM_P1;HPM_P2
2023/11/02 00:02:22;;;;;;;4.90;2.67;;;12.40;74.80;;;;;;5022991;28;20033;-70
2023/11/02 00:04:50;;;;;;;5.55;2.58;;;12.40;74.80;;;;;;5005132;28;20033;-70
2023/11/02 00:07:16;;;;;;;4.70;2.63;;;12.50;87.30;;;;;;5023536;28;20021;-70
2023/11/02 00:09:43;;;;;;;3.97;2.83;;;;;;;;;;5024013;28;20091;-71
2023/11/02 00:12:19;;;;;;;4.57;3.50;;;12.30;87.30;;;;;;5022842;28;20033;-71
2023/11/02 00:14:51;;;;;;;3.70;2.60;;;12.30;75.10;;;;;;5022976;28;20101;-70
2023/11/02 00:17:35;;;;;;;4.55;3.13;;;12.20;75.00;;;;;;5022676;28;20026;-70
2023/11/02 00:20:11;;;;;;;5.53;2.95;;;12.20;75.10;;;;;;5024520;28;20038;-70
2023/11/02 00:22:45;;;;;;;5.22;2.85;;;12.00;76.10;;;;;;5021800;28;20088;-70
2023/11/02 00:25:28;;;;;;;5.93;3.22;;;12.10;75.40;;;;;;5022917;28;20030;-69
2023/11/02 00:27:54;;;;;;;7.18;3.15;;;;;;;;;;5051536;28;20061;-70
2023/11/02 00:30:20;;;;;;;5.57;2.72;;;12.00;85.70;;;;;;5062197;28;20036;-70
2023/11/02 00:32:46;;;;;;;3.78;2.78;;;;;;;;;;5062316;28;20020;-70
2023/11/02 00:35:12;;;;;;;6.28;2.97;;;;;;;;;;5062399;28;20088;-70
2023/11/02 00:37:39;;;;;;;5.53;2.72;;;12.10;75.30;;;;;;5062411;28;20064;-69
2023/11/02 00:40:05;;;;;;;7.20;2.80;;;12.00;87.50;;;;;;5061983;28;20316;-70
2023/11/02 00:42:31;;;;;;;4.55;3.05;;;;;;;;;;5062211;28;20096;-71
2023/11/02 00:44:58;;;;;;;5.20;2.97;;;;;;;;;;5062006;28;20025;-70
2023/11/02 00:47:26;;;;;;;6.47;3.75;;;12.10;87.70;;;;;;5048942;28;20040;-71
2023/11/02 00:49:57;;;;;;;5.68;3.38;;;12.10;75.50;;;;;;5059645;28;20043;-71
2023/11/02 00:52:23;;;;;;;5.28;3.60;;;;;;;;;;5061864;28;20081;-73
2023/11/02 00:54:59;;;;;;;3.80;2.58;;;12.00;75.80;;;;;;5061747;28;20032;-72
2023/11/02 00:57:39;;;;;;;3.97;2.50;;;12.10;88.60;;;;;;5062020;28;20017;-72
2023/11/02 01:00:06;;;;;;;6.00;3.10;;;11.90;89.10;;;;;;5061606;28;20017;-72
2023/11/02 01:02:35;;;;;;;4.45;3.03;;;11.90;77.50;;;;;;5061915;28;20025;-72
2023/11/02 01:05:03;;;;;;;4.35;3.08;;;11.90;77.80;;;;;;5028987;28;20032;-72
2023/11/02 01:07:29;;;;;;;5.90;3.40;;;11.60;86.90;;;;;;5022750;28;20033;-73
2023/11/02 01:10:01;;;;;;;5.70;3.03;;;12.10;90.60;;;;;;5021877;28;20038;-72
2023/11/02 01:12:36;;;;;;;4.15;3.25;;;11.60;88.80;;;;;;5021682;28;20274;-74
2023/11/02 01:15:10;;;;;;;8.02;3.15;;;11.70;79.90;;;;;;5021702;28;20081;-73
2023/11/02 01:17:38;;;;;;;4.43;2.72;;;11.70;80.40;;;;;;5021709;28;20018;-73
2023/11/02 01:20:09;;;;;;;3.78;2.83;;;11.40;85.00;;;;;;5021703;28;20080;-72
2023/11/02 01:23:06;;;;;;;5.28;3.13;;;11.80;91.60;;;;;;5021348;28;20080;-72
2023/11/02 01:25:41;;;;;;;5.63;3.30;;;11.50;81.60;;;;;;5024301;28;20049;-71
2023/11/02 01:28:07;;;;;;;7.53;3.20;;;11.50;84.90;;;;;;5022716;28;20233;-70
2023/11/02 01:30:36;;;;;;;5.60;3.38;;;11.50;92.00;;;;;;5022823;28;20037;-71
2023/11/02 01:33:25;;;;;;;4.47;3.35;;;11.40;82.10;;;;;;5021697;28;20021;-71
2023/11/02 01:35:50;;;;;;;8.23;3.78;;;11.40;92.20;;;;;;5003453;28;20103;-73
2023/11/02 01:38:16;;;;;;;5.55;3.78;;;;;;;;;;5028797;28;20029;-73
2023/11/02 01:41:02;;;;;;;7.13;3.40;;;11.30;90.10;;;;;;5021086;28;20348;-73
2023/11/02 01:43:43;;;;;;;5.35;3.75;;;11.20;86.00;;;;;;5021149;28;20341;-70
2023/11/02 01:46:21;;;;;;;7.88;3.40;;;11.30;83.40;;;;;;5021401;28;20040;-72
2023/11/02 01:48:54;;;;;;;5.10;3.75;;;11.20;83.60;;;;;;5027853;28;20045;-74
2023/11/02 01:51:40;;;;;;;6.35;3.58;;;11.20;83.70;;;;;;5040691;28;20053;-74
2023/11/02 01:54:16;;;;;;;6.28;3.55;;;11.00;90.00;;;;;;5040660;28;20387;-74
2023/11/02 01:56:42;;;;;;;6.32;3.72;;;;;;;;;;5040691;28;20352;-74
2023/11/02 01:59:08;;;;;;;7.13;3.63;;;;;;;;;;5040735;28;20232;-74
2023/11/02 02:02:04;;;;;;;5.38;3.50;;;10.70;83.10;;;;;;5040559;28;20305;-72
2023/11/02 02:04:48;;;;;;;8.35;4.05;;;11.70;92.80;;;;;;5022772;28;20241;-73
2023/11/02 02:07:14;;;;;;;6.63;4.30;;;;;;;;;;5040699;28;20091;-71
2023/11/02 02:10:01;;;;;;;6.18;3.72;;;11.10;92.00;;;;;;5040646;28;20045;-73
2023/11/02 02:12:52;;;;;;;6.68;4.13;;;10.80;87.20;;;;;;5022774;28;20325;-74
2023/11/02 02:15:30;;;;;;;7.72;4.32;;;10.90;93.10;;;;;;5022685;28;20310;-74
2023/11/02 02:18:14;;;;;;;6.15;3.88;;;10.90;84.60;;;;;;5039672;28;20032;-71
2023/11/02 02:20:50;;;;;;;9.50;4.70;;;11.30;93.60;;;;;;5034702;28;20335;-73
2023/11/02 02:23:28;;;;;;;6.03;3.65;;;10.80;86.10;;;;;;5040186;28;20025;-71
2023/11/02 02:26:31;;;;;;;6.13;3.58;;;10.70;90.50;;;;;;5040224;28;20026;-73
2023/11/02 02:29:15;;;;;;;5.88;3.80;;;10.60;85.60;;;;;;5022448;28;20075;-73
2023/11/02 02:31:41;;;;;;;6.47;4.28;;;;;;;;;;5040089;28;20073;-72
2023/11/02 02:34:43;;;;;;;6.97;3.85;;;10.60;86.20;;;;;;5031734;28;20033;-74
2023/11/02 02:37:27;;;;;;;14.60;4.20;;;10.50;86.50;;;;;;5039293;28;20029;-75
2023/11/02 02:40:03;;;;;;;7.07;4.07;;;10.50;87.00;;;;;;5039913;28;20049;-75
2023/11/02 02:42:31;;;;;;;6.78;4.13;;;10.30;93.70;;;;;;5022299;28;20037;-74
2023/11/02 02:45:00;;;;;;;9.35;4.13;;;10.40;87.60;;;;;;5022266;28;20056;-69
2023/11/02 02:47:27;;;;;;;;;;;10.40;88.10;;;;;;5039834;28;20029;-70
2023/11/02 02:49:56;;;;;;;6.72;3.80;;;10.10;95.20;;;;;;5039760;28;19954;-72
2023/11/02 02:52:25;;;;;;;8.15;3.58;;;10.30;88.30;;;;;;5005727;28;20034;-73
2023/11/02 02:54:53;;;;;;;;;;;10.30;88.70;;;;;;5040189;28;20332;-70
2023/11/02 02:57:19;;;;;;;5.05;3.22;;;10.20;88.70;;;;;;5039861;28;19971;-70
2023/11/02 02:59:54;;;;;;;6.13;4.30;;;10.30;89.10;;;;;;5039986;28;20321;-74
2023/11/02 03:02:26;;;;;;;7.03;4.10;;;10.10;89.50;;;;;;5039954;28;20033;-73
2023/11/02 03:04:54;;;;;;;6.90;3.97;;;9.90;96.00;;;;;;5039822;28;20254;-71
2023/11/02 03:07:21;;;;;;;6.85;4.28;;;10.00;90.10;;;;;;5041603;28;20345;-75
2023/11/02 03:09:52;;;;;;;7.03;4.55;;;10.00;90.20;;;;;;5039799;28;20045;-74
2023/11/02 03:12:25;;;;;;;9.90;4.68;;;9.90;92.20;;;;;;5039750;28;20040;-73
2023/11/02 03:14:54;;;;;;;5.65;4.07;;;10.00;90.50;;;;;;5040057;28;20040;-72
2023/11/02 03:17:58;;;;;;;6.43;3.83;;;9.90;90.50;;;;;;5039655;28;20044;-73
2023/11/02 03:20:25;;;;;;;7.03;4.35;;;;;;;;;;4985271;28;20041;-78
2023/11/02 03:22:51;;;;;;;23.00;4.72;;;;;;;;;;5039806;28;20064;-74
2023/11/02 03:25:47;;;;;;;6.28;4.22;;;9.90;90.70;;;;;;5039622;28;20360;-71
2023/11/02 03:28:16;;;;;;;5.30;3.65;;;9.90;94.90;;;;;;5039494;28;20097;-76
2023/11/02 03:30:54;;;;;;;5.13;3.45;;;10.00;90.80;;;;;;5039422;28;20260;-74
2023/11/02 03:33:20;;;;;;;5.50;3.97;;;;;;;;;;5037754;28;20041;-74
2023/11/02 03:36:04;;;;;;;5.50;3.75;;;9.90;94.40;;;;;;5036927;28;20025;-72
2023/11/02 03:38:38;;;;;;;8.60;4.20;;;9.90;94.20;;;;;;5039583;28;20064;-76
2023/11/02 03:41:04;;;;;;;5.55;4.28;;;;;;;;;;5039415;28;20106;-77
2023/11/02 03:43:51;;;;;;;7.07;4.05;;;10.30;97.10;;;;;;5039803;28;20064;-78
2023/11/02 03:46:48;;;;;;;7.05;4.57;;;10.40;94.40;;;;;;5039390;28;20189;-78
2023/11/02 03:49:24;;;;;;;6.68;3.92;;;9.80;97.10;;;;;;5038664;28;20336;-77
2023/11/02 03:52:12;;;;;;;6.75;4.35;;;10.20;95.50;;;;;;5021852;28;20502;-73
2023/11/02 03:54:41;;;;;;;8.60;5.03;;;9.90;97.50;;;;;;5027425;28;20206;-73
2023/11/02 03:57:13;;;;;;;7.53;4.05;;;9.80;91.30;;;;;;5039986;28;20097;-74
2023/11/02 03:59:39;;;;;;;6.85;5.15;;;;;;;;;;5043124;28;20088;-74
2023/11/02 04:02:07;;;;;;;6.53;4.30;;;9.90;97.70;;;;;;5044662;28;20017;-75
2023/11/02 04:04:40;;;;;;;5.72;4.35;;;9.70;91.60;;;;;;5045081;28;20072;-74
2023/11/02 04:07:35;;;;;;;8.23;5.03;;;9.70;91.70;;;;;;5042926;28;20067;-75
2023/11/02 04:10:07;;;;;;;7.57;4.10;;;9.70;91.80;;;;;;5023012;28;20065;-72
2023/11/02 04:12:46;;;;;;;5.43;4.10;;;9.40;92.10;;;;;;5042966;28;20101;-72
2023/11/02 04:15:15;;;;;;;8.55;4.65;;;9.60;91.90;;;;;;5042941;28;20288;-71
2023/11/02 04:17:41;;;;;;;7.53;4.35;;;9.70;92.00;;;;;;5042903;28;20034;-72
2023/11/02 04:20:07;;;;;;;6.38;3.78;;;10.20;95.30;;;;;;5042649;28;20052;-72
2023/11/02 04:22:33;;;;;;;9.35;4.60;;;9.60;95.40;;;;;;5042744;28;20025;-73
2023/11/02 04:24:59;;;;;;;7.78;4.65;;;;;;;;;;5024844;28;20367;-73
2023/11/02 04:27:26;;;;;;;8.48;5.20;;;;;;;;;;5042029;28;20317;-72
2023/11/02 04:29:52;;;;;;;7.65;4.32;;;;;;;;;;5045568;28;20341;-74
2023/11/02 04:32:17;;;;;;;6.13;4.28;;;9.40;92.50;;;;;;5042641;28;20226;-73
2023/11/02 04:34:43;;;;;;;7.15;4.43;;;;;;;;;;5042291;28;20317;-73
2023/11/02 04:37:14;;;;;;;6.03;4.25;;;9.50;98.70;;;;;;5024669;28;20536;-73
2023/11/02 04:39:44;;;;;;;6.43;3.90;;;9.40;92.50;;;;;;5042181;28;20053;-72
2023/11/02 04:42:11;;;;;;;5.88;4.00;;;9.50;98.70;;;;;;5042665;28;20021;-72
2023/11/02 04:44:37;;;;;;;11.18;5.05;;;9.50;95.10;;;;;;5024422;28;20033;-72
2023/11/02 04:47:03;;;;;;;5.75;3.78;;;;;;;;;;5024357;28;20029;-72
2023/11/02 04:49:29;;;;;;;5.88;4.00;;;;;;;;;;5041920;28;20075;-74
2023/11/02 04:52:01;;;;;;;6.28;3.92;;;9.60;95.40;;;;;;5024181;28;20504;-73
2023/11/02 04:54:28;;;;;;;4.93;3.58;;;;;;;;;;5041991;28;20028;-72
2023/11/02 04:56:54;;;;;;;10.48;4.05;;;9.60;98.30;;;;;;5042269;28;20055;-72
2023/11/02 04:59:20;;;;;;;5.57;3.70;;;;;;;;;;5042203;28;20029;-72
2023/11/02 05:01:48;;;;;;;5.15;3.28;;;9.70;92.40;;;;;;5041863;28;20221;-71
2023/11/02 05:04:14;;;;;;;5.15;3.42;;;9.80;95.90;;;;;;5024079;28;20033;-71
2023/11/02 05:06:40;;;;;;;5.80;3.50;;;9.80;98.40;;;;;;5041823;28;20325;-74
2023/11/02 05:09:06;;;;;;;4.82;3.80;;;;;;;;;;5007138;28;20367;-74
2023/11/02 05:11:32;;;;;;;5.57;3.30;;;9.90;92.10;;;;;;5041410;28;20360;-73
2023/11/02 05:13:58;;;;;;;6.03;3.63;;;10.00;96.00;;;;;;5040551;28;20036;-73
2023/11/02 05:16:24;;;;;;;10.20;3.55;;;;;;;;;;5040836;28;20041;-73
2023/11/02 05:18:50;;;;;;;5.32;3.47;;;;;;;;;;5022963;28;20033;-71
2023/11/02 05:21:16;;;;;;;5.18;3.50;;;;;;;;;;5040949;28;20345;-72
2023/11/02 05:23:43;;;;;;;6.32;4.30;;;9.90;91.70;;;;;;5041376;28;20029;-72
2023/11/02 05:26:09;;;;;;;8.77;4.03;;;;;;;;;;5041570;28;20029;-72
2023/11/02 05:28:35;;;;;;;5.63;3.83;;;;;;;;;;5041099;28;20239;-72
2023/11/02 05:31:01;;;;;;;5.60;3.85;;;;;;;;;;5041058;28;20018;-73
2023/11/02 05:33:26;;;;;;;11.82;3.95;;;9.50;93.10;;;;;;5041199;28;20029;-72
2023/11/02 05:35:52;;;;;;;6.72;3.85;;;;;;;;;;5014423;28;20022;-72
2023/11/02 05:38:18;;;;;;;6.88;4.20;;;9.50;94.30;;;;;;5041096;28;20040;-71
2023/11/02 05:40:45;;;;;;;6.63;3.90;;;9.70;94.20;;;;;;5040857;28;20071;-72
2023/11/02 05:43:11;;;;;;;7.55;3.92;;;;;;;;;;5023428;28;20033;-72
2023/11/02 05:45:38;;;;;;;5.63;4.05;;;;;;;;;;5040988;28;20140;-72
2023/11/02 05:48:04;;;;;;;6.25;4.03;;;9.80;97.00;;;;;;5040761;28;20029;-73
2023/11/02 05:50:30;;;;;;;5.60;3.42;;;;;;;;;;5041000;28;20132;-73
2023/11/02 05:52:56;;;;;;;9.07;4.15;;;9.70;98.10;;;;;;5041189;28;20041;-73
2023/11/02 05:55:22;;;;;;;5.53;3.60;;;;;;;;;;5038934;28;20233;-73
2023/11/02 05:57:48;;;;;;;6.53;3.97;;;;;;;;;;5023123;28;20044;-76
2023/11/02 06:00:14;;;;;;;7.00;3.90;;;9.90;95.70;;;;;;5040672;28;20190;-77
2023/11/02 06:02:40;;;;;;;8.65;4.18;;;9.40;92.90;;;;;;5031553;28;20033;-77
2023/11/02 06:05:07;;;;;;;6.43;3.58;;;9.50;92.60;;;;;;5040605;28;20343;-74
2023/11/02 06:07:35;;;;;;;5.38;3.33;;;9.20;93.80;;;;;;5040817;28;20093;-73
2023/11/02 06:10:00;;;;;;;6.38;3.70;;;9.70;98.10;;;;;;5040512;28;20045;-73
2023/11/02 06:12:27;;;;;;;6.20;3.92;;;9.50;92.60;;;;;;5040439;28;20066;-76
2023/11/02 06:14:53;;;;;;;4.95;3.30;;;;;;;;;;5040744;28;20052;-76
2023/11/02 06:17:19;;;;;;;4.78;3.13;;;9.70;97.30;;;;;;5040345;28;20391;-75
2023/11/02 06:19:45;;;;;;;6.97;4.03;;;;;;;;;;5040383;28;20036;-73
2023/11/02 06:22:12;;;;;;;9.57;3.80;;;9.50;92.60;;;;;;5039367;28;20025;-76
2023/11/02 06:24:39;;;;;;;6.22;4.05;;;9.60;98.60;;;;;;5004738;28;20096;-75
2023/11/02 06:27:06;;;;;;;5.88;3.80;;;;;;;;;;5020529;28;20026;-77
2023/11/02 06:29:32;;;;;;;6.82;3.45;;;9.60;92.50;;;;;;5020498;28;20049;-70
2023/11/02 06:31:58;;;;;;;6.45;4.15;;;9.50;95.50;;;;;;5020379;28;20309;-73
2023/11/02 06:34:24;;;;;;;5.97;3.88;;;;;;;;;;5020730;28;20036;-73
2023/11/02 06:36:50;;;;;;;5.63;4.20;;;;;;;;;;5020549;28;20030;-73
2023/11/02 06:39:20;;;;;;;8.27;4.30;;;;;;;;;;5020344;28;20062;-74
2023/11/02 06:41:47;;;;;;;6.32;4.38;;;9.50;92.90;;;;;;5020279;28;20026;-74
2023/11/02 06:44:12;;;;;;;4.97;3.67;;;9.40;99.00;;;;;;5020470;28;20049;-75
2023/11/02 06:46:38;;;;;;;6.93;4.47;;;;;;;;;;5018656;28;20037;-75
2023/11/02 06:49:04;;;;;;;6.93;4.05;;;;;;;;;;5002474;28;20057;-75
2023/11/02 06:51:30;;;;;;;5.97;4.53;;;;;;;;;;5020075;28;20084;-74
2023/11/02 06:53:56;;;;;;;5.90;4.35;;;10.00;95.10;;;;;;5020051;28;20030;-76
2023/11/02 06:56:25;;;;;;;6.00;4.22;;;;;;;;;;5020131;28;20026;-75
2023/11/02 06:58:51;;;;;;;5.85;4.20;;;;;;;;;;5030507;28;20014;-74
2023/11/02 07:01:18;;;;;;;5.90;4.50;;;9.70;92.70;;;;;;5039600;28;20029;-72
2023/11/02 07:03:44;;;;;;;8.27;5.00;;;;;;;;;;5039863;28;20068;-74
2023/11/02 07:06:10;;;;;;;7.57;4.22;;;9.90;93.90;;;;;;5039715;28;20326;-72
2023/11/02 07:08:36;;;;;;;6.28;4.22;;;9.70;95.10;;;;;;5040011;28;20048;-72
2023/11/02 07:11:02;;;;;;;7.00;4.28;;;9.90;92.30;;;;;;5039827;28;20057;-71
2023/11/02 07:13:29;;;;;;;5.80;4.32;;;10.10;98.10;;;;;;5040213;28;20018;-70
2023/11/02 07:15:55;;;;;;;6.85;3.80;;;;;;;;;;5039699;28;20021;-72
2023/11/02 07:18:21;;;;;;;5.63;4.05;;;10.30;97.80;;;;;;5039875;28;20087;-71
2023/11/02 07:20:47;;;;;;;10.13;4.65;;;;;;;;;;5039597;28;20533;-71
2023/11/02 07:23:13;;;;;;;5.90;3.90;;;;;;;;;;5039429;28;20029;-71
2023/11/02 07:25:39;;;;;;;7.57;3.83;;;;;;;;;;5039442;28;20107;-71
2023/11/02 07:28:05;;;;;;;7.22;4.00;;;10.80;94.40;;;;;;5039521;28;20056;-72
2023/11/02 07:30:31;;;;;;;6.50;4.40;;;;;;;;;;5021905;28;20049;-72
2023/11/02 07:32:57;;;;;;;5.72;3.83;;;;;;;;;;5041480;28;20029;-71
2023/11/02 07:35:23;;;;;;;7.13;4.63;;;;;;;;;;5043308;28;20206;-72
2023/11/02 07:37:49;;;;;;;6.82;4.10;;;11.20;95.80;;;;;;5025475;28;20018;-72
2023/11/02 07:40:15;;;;;;;5.45;3.72;;;;;;;;;;5042957;28;20064;-73
2023/11/02 07:42:41;;;;;;;8.57;4.00;;;;;;;;;;5043166;28;20561;-72
2023/11/02 07:45:08;;;;;;;6.18;4.13;;;11.40;88.60;;;;;;5043031;28;20025;-72
2023/11/02 07:47:34;;;;;;;6.15;4.43;;;;;;;;;;5039750;28;20025;-72
2023/11/02 07:50:00;;;;;;;5.25;3.90;;;11.60;87.80;;;;;;5041796;28;20037;-71
2023/11/02 07:52:26;;;;;;;8.10;3.78;;;11.70;86.80;;;;;;5042997;28;20093;-72
2023/11/02 07:54:53;;;;;;;6.40;4.30;;;11.80;94.10;;;;;;5042692;28;20036;-73
2023/11/02 07:57:19;;;;;;;5.55;3.47;;;;;;;;;;5040850;28;20033;-73
2023/11/02 07:59:45;;;;;;;7.45;4.00;;;12.00;85.10;;;;;;5013013;28;20113;-70
2023/11/02 08:02:11;;;;;;;5.75;4.18;;;12.00;84.60;;;;;;5023382;28;20026;-72
2023/11/02 08:04:37;;;;;;;6.50;4.38;;;;;;;;;;5023229;28;20041;-72
2023/11/02 08:07:03;;;;;;;6.45;4.20;;;12.40;91.10;;;;;;5051012;28;20029;-72
2023/11/02 08:09:29;;;;;;;6.68;4.15;;;12.30;85.40;;;;;;5062926;28;20083;-73
2023/11/02 08:11:56;;;;;;;6.55;3.80;;;12.40;90.40;;;;;;5062709;28;20048;-72
2023/11/02 08:14:22;;;;;;;9.80;4.20;;;12.60;91.10;;;;;;5062467;28;20317;-71
2023/11/02 08:16:48;;;;;;;5.80;4.30;;;;;;;;;;5062670;28;20032;-72
2023/11/02 08:19:14;;;;;;;6.70;3.88;;;12.50;90.00;;;;;;5062762;28;20029;-72
2023/11/02 08:21:42;;;;;;;4.60;3.85;;;;;;;;;;5061943;28;20059;-72
2023/11/02 08:24:09;;;;;;;7.53;4.60;;;12.80;81.00;;;;;;5061840;28;20020;-72
2023/11/02 08:26:36;;;;;;;4.20;3.35;;;;;;;;;;5061131;28;20020;-72
2023/11/02 08:29:02;;;;;;;6.60;3.92;;;13.00;80.60;;;;;;5060982;28;20028;-73
2023/11/02 08:31:29;;;;;;;6.60;4.18;;;12.90;90.90;;;;;;5061833;28;20020;-72
2023/11/02 08:33:56;;;;;;;4.45;3.00;;;12.60;79.50;;;;;;5044426;28;20028;-77
2023/11/02 08:36:23;;;;;;;6.25;4.32;;;;;;;;;;5044316;28;20218;-73
2023/11/02 08:38:49;;;;;;;5.80;3.80;;;13.40;78.70;;;;;;5044287;28;20025;-74
2023/11/02 08:41:25;;;;;;;5.85;3.75;;;13.90;79.60;;;;;;5062436;28;20075;-74
2023/11/02 08:43:51;;;;;;;8.23;4.40;;;14.20;89.90;;;;;;5022152;28;20033;-73
2023/11/02 08:46:19;;;;;;;6.50;4.72;;;13.90;77.70;;;;;;5042151;28;20032;-72
2023/11/02 08:48:46;;;;;;;6.43;3.83;;;13.90;77.10;;;;;;5042195;28;20156;-73
2023/11/02 08:51:17;;;;;;;6.80;4.50;;;14.00;76.90;;;;;;5037209;28;20033;-72
2023/11/02 08:53:43;;;;;;;6.43;3.83;;;14.30;78.10;;;;;;5041900;28;20048;-72
2023/11/02 08:56:10;;;;;;;9.02;3.83;;;14.20;76.80;;;;;;5042016;28;20319;-71
2023/11/02 08:58:43;;;;;;;6.13;3.97;;;14.40;76.50;;;;;;5042016;28;20021;-72
2023/11/02 09:01:13;;;;;;;5.38;4.28;;;14.30;87.30;;;;;;5023964;28;20045;-72
2023/11/02 09:03:39;;;;;;;6.38;4.50;;;14.70;84.70;;;;;;5042026;28;20256;-73
2023/11/02 09:06:09;;;;;;;20.45;6.50;;;14.40;84.50;;;;;;5024057;28;20052;-72
2023/11/02 09:08:35;;;;;;;8.27;4.60;;;;;;;;;;5041352;28;20048;-73
2023/11/02 09:11:02;;;;;;;9.23;5.30;;;14.50;85.30;;;;;;5023884;28;20039;-72
2023/11/02 09:13:29;;;;;;;10.05;4.88;;;14.80;84.50;;;;;;5023902;28;20025;-73
2023/11/02 09:15:54;;;;;;;7.30;4.65;;;14.50;84.50;;;;;;5041246;28;20221;-73
2023/11/02 09:18:22;;;;;;;6.57;3.90;;;;;;;;;;5041298;28;20025;-73
2023/11/02 09:20:49;;;;;;;5.88;3.70;;;14.80;73.10;;;;;;5023630;28;20160;-73
2023/11/02 09:23:15;;;;;;;6.55;4.10;;;14.90;83.60;;;;;;5037996;28;20013;-73
2023/11/02 09:25:42;;;;;;;7.22;3.60;;;;;;;;;;5031164;28;20021;-73
2023/11/02 09:28:08;;;;;;;5.45;3.45;;;15.30;76.30;;;;;;5045191;28;20040;-72
2023/11/02 09:30:34;;;;;;;5.63;3.40;;;15.20;82.20;;;;;;5038137;28;20213;-72
2023/11/02 09:32:59;;;;;;;8.15;3.85;;;15.20;82.20;;;;;;5029404;28;20314;-73
2023/11/02 09:35:26;;;;;;;8.55;4.40;;;;;;;;;;5023171;28;20041;-72
2023/11/02 09:37:52;;;;;;;5.38;3.45;;;;;;;;;;5041229;28;20033;-72
2023/11/02 09:40:19;;;;;;;5.53;4.00;;;16.10;75.00;;;;;;5040916;28;20111;-72
2023/11/02 09:42:45;;;;;;;6.78;3.30;;;15.90;80.60;;;;;;5023094;28;20021;-71
2023/11/02 09:45:12;;;;;;;4.25;2.72;;;15.80;80.30;;;;;;5029445;28;20034;-71
2023/11/02 09:47:38;;;;;;;6.03;3.20;;;16.10;73.30;;;;;;5021198;28;20051;-70
2023/11/02 09:50:07;;;;;;;5.32;3.67;;;16.20;74.70;;;;;;5022433;28;20635;-71
2023/11/02 09:52:34;;;;;;;3.83;2.92;;;17.60;69.00;;;;;;5021057;28;20049;-71
2023/11/02 09:55:01;;;;;;;15.23;3.35;;;16.60;73.70;;;;;;5035243;28;20395;-70
2023/11/02 09:57:27;;;;;;;5.75;3.05;;;;;;;;;;5016352;28;20233;-71
2023/11/02 09:59:53;;;;;;;8.45;3.13;;;16.60;69.40;;;;;;5033668;28;20220;-72
2023/11/02 10:02:22;;;;;;;5.97;3.83;;;16.70;78.10;;;;;;5040103;28;20121;-74
2023/11/02 10:04:48;;;;;;;7.25;3.60;;;;;;;;;;5040372;28;20060;-71
2023/11/02 10:07:15;;;;;;;4.90;3.58;;;17.00;77.80;;;;;;5040542;28;20025;-71
2023/11/02 10:09:44;;;;;;;3.45;2.83;;;;;;;;;;5040279;28;20033;-73
2023/11/02 10:12:10;;;;;;;5.13;2.92;;;17.00;76.40;;;;;;5022740;28;20022;-69
2023/11/02 10:14:36;;;;;;;7.88;2.38;;;;;;;;;;5024483;28;20026;-70
2023/11/02 10:17:05;;;;;;;4.63;2.25;;;17.10;66.40;;;;;;5003183;28;20060;-70
2023/11/02 10:19:32;;;;;;;5.18;2.45;;;17.00;74.60;;;;;;5019347;28;20073;-70
2023/11/02 10:21:58;;;;;;;2.80;2.05;;;;;;;;;;5019027;28;20026;-72
2023/11/02 10:24:34;;;;;;;3.85;2.00;;;17.40;63.30;;;;;;5020495;28;20332;-70
2023/11/02 10:27:04;;;;;;;5.18;2.60;;;17.40;65.60;;;;;;5020576;28;20022;-70
2023/11/02 10:29:30;;;;;;;6.45;1.85;;;17.40;62.30;;;;;;5019091;28;20037;-69
2023/11/02 10:31:57;;;;;;;3.90;2.17;;;17.50;71.60;;;;;;5020516;28;20018;-70
2023/11/02 10:34:27;;;;;;;4.05;2.00;;;17.70;72.10;;;;;;5020590;28;20032;-70
2023/11/02 10:36:55;;;;;;;8.23;2.63;;;17.60;70.20;;;;;;5002808;28;20257;-70
2023/11/02 10:39:22;;;;;;;3.78;2.60;;;17.10;62.60;;;;;;5020187;28;20250;-69
2023/11/02 10:41:58;;;;;;;3.58;2.50;;;17.60;66.30;;;;;;5020244;28;20037;-71
2023/11/02 10:44:28;;;;;;;4.20;2.13;;;17.70;67.00;;;;;;5020223;28;20348;-71
2023/11/02 10:47:01;;;;;;;6.75;2.28;;;17.80;71.10;;;;;;5019928;28;20030;-72
2023/11/02 10:49:29;;;;;;;6.72;2.28;;;17.70;61.10;;;;;;5019930;28;20061;-72
2023/11/02 10:51:57;;;;;;;6.65;2.63;;;17.80;70.50;;;;;;5020286;28;20029;-72
2023/11/02 10:54:39;;;;;;;4.68;2.50;;;17.80;65.90;;;;;;5018739;28;20377;-70
2023/11/02 10:57:18;;;;;;;7.40;2.80;;;18.00;69.90;;;;;;5019716;28;20030;-71
2023/11/02 10:59:46;;;;;;;5.97;2.33;;;18.00;64.30;;;;;;5002420;28;20100;-71
2023/11/02 11:02:15;;;;;;;3.40;1.92;;;18.40;64.70;;;;;;5019967;28;20025;-72
2023/11/02 11:04:42;;;;;;;4.25;2.25;;;18.20;68.90;;;;;;5019948;28;20048;-72
2023/11/02 11:07:09;;;;;;;6.03;1.90;;;18.30;59.90;;;;;;5019147;28;20040;-72
2023/11/02 11:09:42;;;;;;;5.15;2.25;;;18.40;68.30;;;;;;5018234;28;20042;-72
2023/11/02 11:12:11;;;;;;;5.68;1.98;;;18.50;59.00;;;;;;5019652;28;20025;-71
2023/11/02 11:14:39;;;;;;;4.13;2.20;;;18.60;67.60;;;;;;5020040;28;20064;-73
2023/11/02 11:17:05;;;;;;;3.25;1.98;;;18.30;67.30;;;;;;5019800;28;20017;-73
2023/11/02 11:19:33;;;;;;;5.28;2.13;;;18.70;67.40;;;;;;5019809;28;20040;-72
2023/11/02 11:22:02;;;;;;;6.97;2.28;;;18.80;65.00;;;;;;5020015;28;20022;-72
2023/11/02 11:24:32;;;;;;;7.75;2.42;;;18.80;57.50;;;;;;5020165;28;20068;-70
2023/11/02 11:26:59;;;;;;;4.40;1.88;;;19.00;57.00;;;;;;5019823;28;20022;-71
2023/11/02 11:29:35;;;;;;;3.50;1.73;;;19.00;58.40;;;;;;5002129;28;20042;-72
2023/11/02 11:32:02;;;;;;;5.68;2.25;;;;;;;;;;5019666;28;20026;-72
2023/11/02 11:34:54;;;;;;;3.45;2.25;;;19.20;56.50;;;;;;5019703;28;20026;-73
2023/11/02 11:37:39;;;;;;;4.15;2.60;;;19.00;65.50;;;;;;5019916;28;20018;-71
2023/11/02 11:40:08;;;;;;;4.93;1.60;;;19.40;58.50;;;;;;5018280;28;20062;-72
2023/11/02 11:43:04;;;;;;;2.25;1.80;;;19.20;56.30;;;;;;5018303;28;20026;-71
2023/11/02 11:45:31;;;;;;;4.85;1.95;;;18.80;65.50;;;;;;5019669;28;20337;-71
2023/11/02 11:48:04;;;;;;;2.95;1.70;;;19.00;65.90;;;;;;5019603;28;20025;-72
2023/11/02 11:50:33;;;;;;;6.10;1.60;;;18.60;60.30;;;;;;5019598;28;20034;-72
2023/11/02 11:53:19;;;;;;;4.78;1.92;;;18.60;58.20;;;;;;5019751;28;20304;-73
2023/11/02 11:55:52;;;;;;;3.47;1.90;;;18.70;61.90;;;;;;5001878;28;20140;-71
2023/11/02 11:58:40;;;;;;;3.08;1.98;;;19.00;60.20;;;;;;5001995;28;20068;-71
2023/11/02 12:01:15;;;;;;;3.80;1.90;;;19.00;66.20;;;;;;5019493;28;20104;-72
2023/11/02 12:03:43;;;;;;;5.95;2.15;;;19.00;60.00;;;;;;5029657;28;20030;-72
2023/11/02 12:06:15;;;;;;;4.55;1.67;;;19.20;65.50;;;;;;5039222;28;20434;-72
2023/11/02 12:08:51;;;;;;;3.55;2.05;;;19.20;56.60;;;;;;5038975;28;20064;-72
2023/11/02 12:11:24;;;;;;;5.90;1.92;;;19.50;65.00;;;;;;5039319;28;20079;-72
2023/11/02 12:13:58;;;;;;;3.60;1.90;;;19.50;64.50;;;;;;5039110;28;20044;-72
2023/11/02 12:16:31;;;;;;;3.47;1.75;;;19.60;64.30;;;;;;5039184;28;20063;-72
2023/11/02 12:18:57;;;;;;;4.72;1.70;;;19.60;64.30;;;;;;5021642;28;20035;-72
2023/11/02 12:21:24;;;;;;;3.00;1.60;;;19.90;64.40;;;;;;5042873;28;20057;-73
2023/11/02 12:23:51;;;;;;;4.03;1.80;;;20.20;63.20;;;;;;5042471;28;20151;-72
2023/11/02 12:26:21;;;;;;;8.55;1.70;;;20.80;62.20;;;;;;5024965;28;20303;-72
2023/11/02 12:28:51;;;;;;;4.93;2.15;;;20.60;55.80;;;;;;5042647;28;20041;-72
2023/11/02 12:31:42;;;;;;;3.25;2.00;;;21.20;60.00;;;;;;5042318;28;20021;-75
2023/11/02 12:34:11;;;;;;;6.35;1.90;;;23.20;56.70;;;;;;5042402;28;20025;-75
2023/11/02 12:36:39;;;;;;;5.28;2.05;;;22.90;51.60;;;;;;5042259;28;20079;-75
2023/11/02 12:39:10;;;;;;;;;;;24.80;47.80;;;;;;5042556;28;20021;-75
2023/11/02 12:41:37;;;;;;;6.07;2.10;;;26.90;43.60;;;;;;5042211;28;19900;-75
2023/11/02 12:44:11;;;;;;;3.67;1.42;;;27.70;41.50;;;;;;5042162;28;20036;-75
2023/11/02 12:46:45;;;;;;;3.22;1.77;;;28.50;45.30;;;;;;5042159;28;20352;-76
2023/11/02 12:49:11;;;;;;;4.20;1.90;;;31.40;38.40;;;;;;5042108;28;20528;-75
2023/11/02 12:51:37;;;;;;;3.10;1.98;;;33.50;36.80;;;;;;5037012;28;20096;-76
2023/11/02 12:54:11;;;;;;;4.55;1.60;;;33.60;34.90;;;;;;5030989;28;20040;-76
2023/11/02 12:56:38;;;;;;;5.13;2.08;;;35.60;32.90;;;;;;5021979;28;20030;-76
2023/11/02 12:59:08;;;;;;;5.75;1.38;;;37.10;30.90;;;;;;5021959;28;20038;-76
2023/11/02 13:01:43;;;;;;;2.10;1.45;;;38.20;29.20;;;;;;5024535;28;20052;-76
2023/11/02 13:04:09;;;;;;;2.63;1.25;;;38.10;28.90;;;;;;5041665;28;20032;-75
2023/11/02 13:06:36;;;;;;;2.20;1.40;;;33.80;32.10;;;;;;5041806;28;20077;-75
2023/11/02 13:09:07;;;;;;;5.97;1.60;;;32.00;34.90;;;;;;5020968;28;20034;-75
2023/11/02 13:11:32;;;;;;;3.30;1.42;;;29.40;37.20;;;;;;5022021;28;20088;-75
2023/11/02 13:13:58;;;;;;;4.68;1.40;;;26.90;41.60;;;;;;5028214;28;20327;-75
2023/11/02 13:16:24;;;;;;;3.30;1.48;;;25.00;43.70;;;;;;5041501;28;20022;-75
2023/11/02 13:18:52;;;;;;;1.92;1.33;;;24.50;42.20;;;;;;5023541;28;20088;-75
2023/11/02 13:21:18;;;;;;;;;;;24.50;40.50;;;;;;5041854;28;20261;-75
2023/11/02 13:23:44;;;;;;;2.60;1.35;;;23.30;48.60;;;;;;5041527;28;19909;-74
2023/11/02 13:26:11;;;;;;;3.03;1.20;;;23.80;41.70;;;;;;5041538;28;20101;-75
2023/11/02 13:28:37;;;;;;;4.55;1.20;;;23.90;44.20;;;;;;5041617;28;20071;-75
2023/11/02 13:31:06;;;;;;;7.57;1.20;;;24.10;48.10;;;;;;5041061;28;20108;-75